sensor_id;sensor_type;location;lat;lon;timestamp;P1;durP1;ratioP1;P2;durP2;ratioP2
19798;SDS011;10059;59.850;10.454;2023-06-22T00:01:12;32.53;;;24.00;;
19798;SDS011;10059;59.850;10.454;2023-06-22T00:03:39;36.87;;;26.20;;
19798;SDS011;10059;59.850;10.454;2023-06-22T00:06:06;32.30;;;24.27;;
19798;SDS011;10059;59.850;10.454;2023-06-22T00:08:33;36.30;;;27.67;;
19798;SDS011;10059;59.850;10.454;2023-06-22T00:11:00;35.87;;;23.77;;
19798;SDS011;10059;59.850;10.454;2023-06-22T00:13:27;35.50;;;25.20;;
19798;SDS011;10059;59.850;10.454;2023-06-22T00:15:55;34.00;;;24.90;;
19798;SDS011;10059;59.850;10.454;2023-06-22T00:18:21;36.40;;;24.37;;
19798;SDS011;10059;59.850;10.454;2023-06-22T00:20:53;31.90;;;23.93;;
19798;SDS011;10059;59.850;10.454;2023-06-22T00:23:23;38.00;;;25.70;;
19798;SDS011;10059;59.850;10.454;2023-06-22T00:25:50;33.00;;;25.07;;
19798;SDS011;10059;59.850;10.454;2023-06-22T00:28:17;33.70;;;25.13;;
19798;SDS011;10059;59.850;10.454;2023-06-22T00:30:44;35.77;;;24.83;;
19798;SDS011;10059;59.850;10.454;2023-06-22T00:33:13;32.80;;;24.23;;
19798;SDS011;10059;59.850;10.454;2023-06-22T00:35:41;35.40;;;25.83;;
19798;SDS011;10059;59.850;10.454;2023-06-22T00:38:08;37.37;;;26.40;;
19798;SDS011;10059;59.850;10.454;2023-06-22T00:40:35;37.93;;;25.47;;
19798;SDS011;10059;59.850;10.454;2023-06-22T00:43:02;41.73;;;29.23;;
19798;SDS011;10059;59.850;10.454;2023-06-22T00:45:30;41.43;;;26.90;;
19798;SDS011;10059;59.850;10.454;2023-06-22T00:47:57;40.10;;;26.13;;
19798;SDS011;10059;59.850;10.454;2023-06-22T00:50:26;36.10;;;25.93;;
19798;SDS011;10059;59.850;10.454;2023-06-22T00:52:54;32.53;;;24.30;;
19798;SDS011;10059;59.850;10.454;2023-06-22T00:55:23;32.10;;;22.87;;
19798;SDS011;10059;59.850;10.454;2023-06-22T00:57:51;34.87;;;23.60;;
19798;SDS011;10059;59.850;10.454;2023-06-22T01:00:20;32.37;;;21.87;;
19798;SDS011;10059;59.850;10.454;2023-06-22T01:02:50;29.97;;;21.60;;
19798;SDS011;10059;59.850;10.454;2023-06-22T01:05:19;35.10;;;20.93;;
19798;SDS011;10059;59.850;10.454;2023-06-22T01:07:53;25.80;;;18.33;;
19798;SDS011;10059;59.850;10.454;2023-06-22T01:10:33;21.67;;;16.40;;
19798;SDS011;10059;59.850;10.454;2023-06-22T01:13:07;19.97;;;15.03;;
19798;SDS011;10059;59.850;10.454;2023-06-22T01:15:39;17.93;;;14.97;;
19798;SDS011;10059;59.850;10.454;2023-06-22T01:18:11;23.23;;;14.80;;
19798;SDS011;10059;59.850;10.454;2023-06-22T01:20:40;20.93;;;13.60;;
19798;SDS011;10059;59.850;10.454;2023-06-22T01:23:11;17.70;;;13.27;;
19798;SDS011;10059;59.850;10.454;2023-06-22T01:25:47;19.03;;;12.57;;
19798;SDS011;10059;59.850;10.454;2023-06-22T01:28:23;17.80;;;12.20;;
19798;SDS011;10059;59.850;10.454;2023-06-22T01:31:03;19.00;;;10.83;;
19798;SDS011;10059;59.850;10.454;2023-06-22T01:33:34;14.73;;;11.13;;
19798;SDS011;10059;59.850;10.454;2023-06-22T01:36:03;17.83;;;9.90;;
19798;SDS011;10059;59.850;10.454;2023-06-22T01:38:32;11.03;;;8.93;;
19798;SDS011;10059;59.850;10.454;2023-06-22T01:41:00;18.67;;;10.90;;
19798;SDS011;10059;59.850;10.454;2023-06-22T01:43:28;13.63;;;10.00;;
19798;SDS011;10059;59.850;10.454;2023-06-22T01:45:59;14.93;;;10.20;;
19798;SDS011;10059;59.850;10.454;2023-06-22T01:48:27;17.40;;;10.90;;
19798;SDS011;10059;59.850;10.454;2023-06-22T01:50:54;20.63;;;11.00;;
19798;SDS011;10059;59.850;10.454;2023-06-22T01:53:21;15.57;;;9.83;;
19798;SDS011;10059;59.850;10.454;2023-06-22T01:55:48;14.53;;;9.40;;
19798;SDS011;10059;59.850;10.454;2023-06-22T01:58:15;29.13;;;10.73;;
19798;SDS011;10059;59.850;10.454;2023-06-22T02:00:44;21.40;;;9.50;;
19798;SDS011;10059;59.850;10.454;2023-06-22T02:03:19;10.77;;;9.00;;
19798;SDS011;10059;59.850;10.454;2023-06-22T02:05:49;12.53;;;8.83;;
19798;SDS011;10059;59.850;10.454;2023-06-22T02:08:21;10.73;;;8.63;;
19798;SDS011;10059;59.850;10.454;2023-06-22T02:10:51;15.23;;;8.93;;
19798;SDS011;10059;59.850;10.454;2023-06-22T02:13:19;16.47;;;8.90;;
19798;SDS011;10059;59.850;10.454;2023-06-22T02:15:46;14.20;;;8.83;;
19798;SDS011;10059;59.850;10.454;2023-06-22T02:18:13;12.80;;;8.40;;
19798;SDS011;10059;59.850;10.454;2023-06-22T02:20:42;10.20;;;8.17;;
19798;SDS011;10059;59.850;10.454;2023-06-22T02:23:09;12.40;;;7.67;;
19798;SDS011;10059;59.850;10.454;2023-06-22T02:25:36;14.33;;;7.93;;
19798;SDS011;10059;59.850;10.454;2023-06-22T02:28:03;9.50;;;7.50;;
19798;SDS011;10059;59.850;10.454;2023-06-22T02:30:31;13.27;;;6.80;;
19798;SDS011;10059;59.850;10.454;2023-06-22T02:32:58;11.23;;;6.97;;
19798;SDS011;10059;59.850;10.454;2023-06-22T02:35:25;12.80;;;6.60;;
19798;SDS011;10059;59.850;10.454;2023-06-22T02:37:57;10.50;;;6.30;;
19798;SDS011;10059;59.850;10.454;2023-06-22T02:40:25;9.67;;;5.87;;
19798;SDS011;10059;59.850;10.454;2023-06-22T02:42:52;8.40;;;5.50;;
19798;SDS011;10059;59.850;10.454;2023-06-22T02:45:19;7.93;;;5.13;;
19798;SDS011;10059;59.850;10.454;2023-06-22T02:47:46;7.43;;;4.83;;
19798;SDS011;10059;59.850;10.454;2023-06-22T02:50:13;8.67;;;4.90;;
19798;SDS011;10059;59.850;10.454;2023-06-22T02:52:40;9.50;;;4.97;;
19798;SDS011;10059;59.850;10.454;2023-06-22T02:55:09;10.83;;;4.90;;
19798;SDS011;10059;59.850;10.454;2023-06-22T02:57:35;6.77;;;4.60;;
19798;SDS011;10059;59.850;10.454;2023-06-22T03:00:03;6.53;;;4.47;;
19798;SDS011;10059;59.850;10.454;2023-06-22T03:02:41;10.60;;;4.40;;
19798;SDS011;10059;59.850;10.454;2023-06-22T03:05:08;7.60;;;4.50;;
19798;SDS011;10059;59.850;10.454;2023-06-22T03:07:38;8.27;;;4.30;;
19798;SDS011;10059;59.850;10.454;2023-06-22T03:10:06;6.10;;;4.70;;
19798;SDS011;10059;59.850;10.454;2023-06-22T03:12:36;8.90;;;4.70;;
19798;SDS011;10059;59.850;10.454;2023-06-22T03:15:04;7.53;;;4.30;;
19798;SDS011;10059;59.850;10.454;2023-06-22T03:17:31;9.80;;;4.50;;
19798;SDS011;10059;59.850;10.454;2023-06-22T03:19:59;13.60;;;5.20;;
19798;SDS011;10059;59.850;10.454;2023-06-22T03:22:26;9.70;;;4.60;;
19798;SDS011;10059;59.850;10.454;2023-06-22T03:24:52;7.73;;;4.20;;
19798;SDS011;10059;59.850;10.454;2023-06-22T03:27:21;5.07;;;4.23;;
19798;SDS011;10059;59.850;10.454;2023-06-22T03:29:47;5.50;;;3.37;;
19798;SDS011;10059;59.850;10.454;2023-06-22T03:32:14;4.03;;;3.17;;
19798;SDS011;10059;59.850;10.454;2023-06-22T03:34:41;4.97;;;3.40;;
19798;SDS011;10059;59.850;10.454;2023-06-22T03:37:12;3.80;;;3.10;;
19798;SDS011;10059;59.850;10.454;2023-06-22T03:39:39;6.60;;;3.43;;
19798;SDS011;10059;59.850;10.454;2023-06-22T03:42:06;6.23;;;3.00;;
19798;SDS011;10059;59.850;10.454;2023-06-22T03:44:34;5.50;;;3.33;;
19798;SDS011;10059;59.850;10.454;2023-06-22T03:47:02;7.10;;;3.00;;
19798;SDS011;10059;59.850;10.454;2023-06-22T03:49:32;6.77;;;3.50;;
19798;SDS011;10059;59.850;10.454;2023-06-22T03:51:59;3.90;;;2.97;;
19798;SDS011;10059;59.850;10.454;2023-06-22T03:54:26;6.47;;;3.43;;
19798;SDS011;10059;59.850;10.454;2023-06-22T03:56:52;7.03;;;3.43;;
19798;SDS011;10059;59.850;10.454;2023-06-22T03:59:19;5.83;;;3.70;;
19798;SDS011;10059;59.850;10.454;2023-06-22T04:01:48;4.40;;;3.50;;
19798;SDS011;10059;59.850;10.454;2023-06-22T04:04:15;6.03;;;3.40;;
19798;SDS011;10059;59.850;10.454;2023-06-22T04:06:42;5.10;;;3.00;;
19798;SDS011;10059;59.850;10.454;2023-06-22T04:09:09;11.23;;;3.40;;
19798;SDS011;10059;59.850;10.454;2023-06-22T04:11:36;6.50;;;3.40;;
19798;SDS011;10059;59.850;10.454;2023-06-22T04:14:03;5.30;;;3.40;;
19798;SDS011;10059;59.850;10.454;2023-06-22T04:16:29;5.10;;;3.10;;
19798;SDS011;10059;59.850;10.454;2023-06-22T04:18:58;5.93;;;3.37;;
19798;SDS011;10059;59.850;10.454;2023-06-22T04:21:24;9.30;;;3.17;;
19798;SDS011;10059;59.850;10.454;2023-06-22T04:23:51;5.73;;;3.17;;
19798;SDS011;10059;59.850;10.454;2023-06-22T04:26:18;6.33;;;3.30;;
19798;SDS011;10059;59.850;10.454;2023-06-22T04:28:46;10.20;;;3.37;;
19798;SDS011;10059;59.850;10.454;2023-06-22T04:31:16;6.87;;;3.13;;
19798;SDS011;10059;59.850;10.454;2023-06-22T04:33:44;6.00;;;2.90;;
19798;SDS011;10059;59.850;10.454;2023-06-22T04:36:13;6.57;;;3.37;;
19798;SDS011;10059;59.850;10.454;2023-06-22T04:38:40;4.27;;;2.63;;
19798;SDS011;10059;59.850;10.454;2023-06-22T04:41:07;3.03;;;2.43;;
19798;SDS011;10059;59.850;10.454;2023-06-22T04:43:39;5.40;;;2.47;;
19798;SDS011;10059;59.850;10.454;2023-06-22T04:46:06;5.23;;;2.43;;
19798;SDS011;10059;59.850;10.454;2023-06-22T04:48:32;5.27;;;2.67;;
19798;SDS011;10059;59.850;10.454;2023-06-22T04:50:59;5.23;;;2.53;;
19798;SDS011;10059;59.850;10.454;2023-06-22T04:53:31;6.30;;;2.60;;
19798;SDS011;10059;59.850;10.454;2023-06-22T04:55:58;3.73;;;2.60;;
19798;SDS011;10059;59.850;10.454;2023-06-22T04:58:24;4.17;;;2.40;;
19798;SDS011;10059;59.850;10.454;2023-06-22T05:00:53;6.20;;;2.30;;
19798;SDS011;10059;59.850;10.454;2023-06-22T05:03:22;5.73;;;2.53;;
19798;SDS011;10059;59.850;10.454;2023-06-22T05:05:51;6.10;;;2.50;;
19798;SDS011;10059;59.850;10.454;2023-06-22T05:08:18;5.60;;;2.40;;
19798;SDS011;10059;59.850;10.454;2023-06-22T05:10:47;4.17;;;2.47;;
19798;SDS011;10059;59.850;10.454;2023-06-22T05:13:15;6.77;;;2.40;;
19798;SDS011;10059;59.850;10.454;2023-06-22T05:15:42;4.70;;;2.40;;
19798;SDS011;10059;59.850;10.454;2023-06-22T05:18:09;4.40;;;2.10;;
19798;SDS011;10059;59.850;10.454;2023-06-22T05:20:36;2.23;;;1.83;;
19798;SDS011;10059;59.850;10.454;2023-06-22T05:23:03;2.30;;;1.70;;
19798;SDS011;10059;59.850;10.454;2023-06-22T05:25:30;2.20;;;1.77;;
19798;SDS011;10059;59.850;10.454;2023-06-22T05:27:59;2.43;;;1.87;;
19798;SDS011;10059;59.850;10.454;2023-06-22T05:30:25;2.67;;;1.73;;
19798;SDS011;10059;59.850;10.454;2023-06-22T05:32:53;2.83;;;1.83;;
19798;SDS011;10059;59.850;10.454;2023-06-22T05:35:20;4.73;;;1.90;;
19798;SDS011;10059;59.850;10.454;2023-06-22T05:37:47;4.33;;;2.10;;
19798;SDS011;10059;59.850;10.454;2023-06-22T05:40:14;2.27;;;1.70;;
19798;SDS011;10059;59.850;10.454;2023-06-22T05:42:40;3.10;;;1.90;;
19798;SDS011;10059;59.850;10.454;2023-06-22T05:45:09;3.73;;;1.70;;
19798;SDS011;10059;59.850;10.454;2023-06-22T05:47:36;3.53;;;1.57;;
19798;SDS011;10059;59.850;10.454;2023-06-22T05:50:03;3.17;;;1.70;;
19798;SDS011;10059;59.850;10.454;2023-06-22T05:52:33;4.50;;;1.70;;
19798;SDS011;10059;59.850;10.454;2023-06-22T05:55:01;2.03;;;1.70;;
19798;SDS011;10059;59.850;10.454;2023-06-22T05:57:29;2.77;;;1.90;;
19798;SDS011;10059;59.850;10.454;2023-06-22T05:59:55;1.67;;;1.47;;
19798;SDS011;10059;59.850;10.454;2023-06-22T06:02:23;2.47;;;1.73;;
19798;SDS011;10059;59.850;10.454;2023-06-22T06:04:51;2.63;;;1.80;;
19798;SDS011;10059;59.850;10.454;2023-06-22T06:07:17;2.73;;;1.77;;
19798;SDS011;10059;59.850;10.454;2023-06-22T06:09:44;6.43;;;1.70;;
19798;SDS011;10059;59.850;10.454;2023-06-22T06:12:13;4.60;;;1.53;;
19798;SDS011;10059;59.850;10.454;2023-06-22T06:14:39;4.90;;;1.50;;
19798;SDS011;10059;59.850;10.454;2023-06-22T06:17:06;3.10;;;1.70;;
19798;SDS011;10059;59.850;10.454;2023-06-22T06:19:34;3.87;;;1.60;;
19798;SDS011;10059;59.850;10.454;2023-06-22T06:22:01;3.87;;;1.70;;
19798;SDS011;10059;59.850;10.454;2023-06-22T06:24:28;4.00;;;1.43;;
19798;SDS011;10059;59.850;10.454;2023-06-22T06:26:55;2.70;;;1.60;;
19798;SDS011;10059;59.850;10.454;2023-06-22T06:29:22;2.17;;;1.50;;
19798;SDS011;10059;59.850;10.454;2023-06-22T06:31:49;2.40;;;1.60;;
19798;SDS011;10059;59.850;10.454;2023-06-22T06:34:16;3.63;;;1.80;;
19798;SDS011;10059;59.850;10.454;2023-06-22T06:36:45;3.47;;;1.50;;
19798;SDS011;10059;59.850;10.454;2023-06-22T06:39:11;2.97;;;1.60;;
19798;SDS011;10059;59.850;10.454;2023-06-22T06:41:38;2.00;;;1.50;;
19798;SDS011;10059;59.850;10.454;2023-06-22T06:44:05;2.00;;;1.43;;
19798;SDS011;10059;59.850;10.454;2023-06-22T06:46:32;5.63;;;1.93;;
19798;SDS011;10059;59.850;10.454;2023-06-22T06:48:59;2.43;;;1.57;;
19798;SDS011;10059;59.850;10.454;2023-06-22T06:51:25;2.93;;;1.60;;
19798;SDS011;10059;59.850;10.454;2023-06-22T06:53:55;4.13;;;1.67;;
19798;SDS011;10059;59.850;10.454;2023-06-22T06:56:21;5.17;;;1.47;;
19798;SDS011;10059;59.850;10.454;2023-06-22T06:58:49;4.03;;;1.57;;
19798;SDS011;10059;59.850;10.454;2023-06-22T07:01:17;5.10;;;1.60;;
19798;SDS011;10059;59.850;10.454;2023-06-22T07:03:44;3.27;;;1.90;;
19798;SDS011;10059;59.850;10.454;2023-06-22T07:06:12;2.97;;;1.60;;
19798;SDS011;10059;59.850;10.454;2023-06-22T07:08:41;2.77;;;1.47;;
19798;SDS011;10059;59.850;10.454;2023-06-22T07:11:09;2.47;;;1.57;;
19798;SDS011;10059;59.850;10.454;2023-06-22T07:13:36;4.60;;;1.70;;
19798;SDS011;10059;59.850;10.454;2023-06-22T07:16:03;2.93;;;1.70;;
19798;SDS011;10059;59.850;10.454;2023-06-22T07:18:30;3.60;;;1.50;;
19798;SDS011;10059;59.850;10.454;2023-06-22T07:20:57;1.77;;;1.27;;
19798;SDS011;10059;59.850;10.454;2023-06-22T07:23:24;2.07;;;1.47;;
19798;SDS011;10059;59.850;10.454;2023-06-22T07:25:51;3.03;;;1.70;;
19798;SDS011;10059;59.850;10.454;2023-06-22T07:28:19;1.93;;;1.50;;
19798;SDS011;10059;59.850;10.454;2023-06-22T07:30:46;1.90;;;1.23;;
19798;SDS011;10059;59.850;10.454;2023-06-22T07:33:13;1.77;;;1.20;;
19798;SDS011;10059;59.850;10.454;2023-06-22T07:35:40;2.23;;;1.20;;
19798;SDS011;10059;59.850;10.454;2023-06-22T07:38:06;2.20;;;1.17;;
19798;SDS011;10059;59.850;10.454;2023-06-22T07:40:34;1.67;;;1.10;;
19798;SDS011;10059;59.850;10.454;2023-06-22T07:43:01;2.57;;;0.90;;
19798;SDS011;10059;59.850;10.454;2023-06-22T07:45:29;2.17;;;1.30;;
19798;SDS011;10059;59.850;10.454;2023-06-22T07:47:58;2.83;;;1.10;;
19798;SDS011;10059;59.850;10.454;2023-06-22T07:50:25;1.67;;;1.00;;
19798;SDS011;10059;59.850;10.454;2023-06-22T07:52:52;1.97;;;1.33;;
19798;SDS011;10059;59.850;10.454;2023-06-22T07:55:18;1.80;;;1.03;;
19798;SDS011;10059;59.850;10.454;2023-06-22T07:57:46;2.57;;;1.10;;
19798;SDS011;10059;59.850;10.454;2023-06-22T08:00:17;2.10;;;1.10;;
19798;SDS011;10059;59.850;10.454;2023-06-22T08:02:45;2.47;;;1.07;;
19798;SDS011;10059;59.850;10.454;2023-06-22T08:05:13;1.40;;;1.00;;
19798;SDS011;10059;59.850;10.454;2023-06-22T08:07:40;5.43;;;1.20;;
19798;SDS011;10059;59.850;10.454;2023-06-22T08:10:10;2.90;;;1.20;;
19798;SDS011;10059;59.850;10.454;2023-06-22T08:12:37;2.17;;;1.30;;
19798;SDS011;10059;59.850;10.454;2023-06-22T08:15:05;3.57;;;1.30;;
19798;SDS011;10059;59.850;10.454;2023-06-22T08:17:34;3.73;;;1.50;;
19798;SDS011;10059;59.850;10.454;2023-06-22T08:20:05;4.57;;;1.30;;
19798;SDS011;10059;59.850;10.454;2023-06-22T08:22:35;1.90;;;1.40;;
19798;SDS011;10059;59.850;10.454;2023-06-22T08:25:03;2.30;;;1.40;;
19798;SDS011;10059;59.850;10.454;2023-06-22T08:27:31;2.60;;;1.30;;
19798;SDS011;10059;59.850;10.454;2023-06-22T08:29:58;3.10;;;1.50;;
19798;SDS011;10059;59.850;10.454;2023-06-22T08:32:25;1.97;;;1.50;;
19798;SDS011;10059;59.850;10.454;2023-06-22T08:34:52;3.10;;;1.30;;
19798;SDS011;10059;59.850;10.454;2023-06-22T08:37:20;2.60;;;1.10;;
19798;SDS011;10059;59.850;10.454;2023-06-22T08:39:55;4.80;;;1.50;;
19798;SDS011;10059;59.850;10.454;2023-06-22T08:42:22;3.17;;;1.23;;
19798;SDS011;10059;59.850;10.454;2023-06-22T08:44:49;3.33;;;1.30;;
19798;SDS011;10059;59.850;10.454;2023-06-22T08:47:16;2.07;;;1.10;;
19798;SDS011;10059;59.850;10.454;2023-06-22T08:49:43;2.27;;;1.17;;
19798;SDS011;10059;59.850;10.454;2023-06-22T08:52:10;2.83;;;1.20;;
19798;SDS011;10059;59.850;10.454;2023-06-22T08:54:38;3.67;;;1.43;;
19798;SDS011;10059;59.850;10.454;2023-06-22T08:57:05;2.53;;;1.43;;
19798;SDS011;10059;59.850;10.454;2023-06-22T08:59:32;1.20;;;1.10;;
19798;SDS011;10059;59.850;10.454;2023-06-22T09:01:59;2.67;;;1.13;;
19798;SDS011;10059;59.850;10.454;2023-06-22T09:04:26;2.33;;;1.20;;
19798;SDS011;10059;59.850;10.454;2023-06-22T09:06:53;1.40;;;1.10;;
19798;SDS011;10059;59.850;10.454;2023-06-22T09:09:20;3.83;;;1.30;;
19798;SDS011;10059;59.850;10.454;2023-06-22T09:11:49;1.27;;;1.10;;
19798;SDS011;10059;59.850;10.454;2023-06-22T09:14:15;1.03;;;0.93;;
19798;SDS011;10059;59.850;10.454;2023-06-22T09:16:42;1.87;;;1.10;;
19798;SDS011;10059;59.850;10.454;2023-06-22T09:19:09;3.87;;;1.20;;
19798;SDS011;10059;59.850;10.454;2023-06-22T09:21:36;5.70;;;1.33;;
19798;SDS011;10059;59.850;10.454;2023-06-22T09:24:03;2.03;;;1.10;;
19798;SDS011;10059;59.850;10.454;2023-06-22T09:26:30;2.23;;;0.90;;
19798;SDS011;10059;59.850;10.454;2023-06-22T09:28:58;2.47;;;1.10;;
19798;SDS011;10059;59.850;10.454;2023-06-22T09:31:25;1.90;;;1.10;;
19798;SDS011;10059;59.850;10.454;2023-06-22T09:33:52;2.03;;;0.90;;
19798;SDS011;10059;59.850;10.454;2023-06-22T09:36:20;2.40;;;1.00;;
19798;SDS011;10059;59.850;10.454;2023-06-22T09:38:47;2.30;;;0.97;;
19798;SDS011;10059;59.850;10.454;2023-06-22T09:41:20;1.83;;;1.10;;
19798;SDS011;10059;59.850;10.454;2023-06-22T09:43:47;2.47;;;0.90;;
19798;SDS011;10059;59.850;10.454;2023-06-22T09:46:16;3.17;;;0.80;;
19798;SDS011;10059;59.850;10.454;2023-06-22T09:48:43;1.00;;;0.90;;
19798;SDS011;10059;59.850;10.454;2023-06-22T09:51:09;2.37;;;1.00;;
19798;SDS011;10059;59.850;10.454;2023-06-22T09:53:37;1.77;;;1.03;;
19798;SDS011;10059;59.850;10.454;2023-06-22T09:56:04;1.70;;;0.80;;
19798;SDS011;10059;59.850;10.454;2023-06-22T09:58:31;1.77;;;0.80;;
19798;SDS011;10059;59.850;10.454;2023-06-22T10:00:58;2.13;;;0.90;;
19798;SDS011;10059;59.850;10.454;2023-06-22T10:03:26;1.60;;;0.83;;
19798;SDS011;10059;59.850;10.454;2023-06-22T10:05:53;1.47;;;0.90;;
19798;SDS011;10059;59.850;10.454;2023-06-22T10:08:19;1.13;;;0.90;;
19798;SDS011;10059;59.850;10.454;2023-06-22T10:10:46;1.97;;;1.00;;
19798;SDS011;10059;59.850;10.454;2023-06-22T10:13:13;3.23;;;0.90;;
19798;SDS011;10059;59.850;10.454;2023-06-22T10:15:40;4.53;;;0.73;;
19798;SDS011;10059;59.850;10.454;2023-06-22T10:18:07;4.27;;;1.00;;
19798;SDS011;10059;59.850;10.454;2023-06-22T10:20:36;1.23;;;0.83;;
19798;SDS011;10059;59.850;10.454;2023-06-22T10:23:03;1.83;;;0.70;;
19798;SDS011;10059;59.850;10.454;2023-06-22T10:25:29;3.20;;;0.80;;
19798;SDS011;10059;59.850;10.454;2023-06-22T10:27:56;2.33;;;0.80;;
19798;SDS011;10059;59.850;10.454;2023-06-22T10:30:23;0.80;;;0.70;;
19798;SDS011;10059;59.850;10.454;2023-06-22T10:32:50;0.93;;;0.70;;
19798;SDS011;10059;59.850;10.454;2023-06-22T10:35:17;2.23;;;0.73;;
19798;SDS011;10059;59.850;10.454;2023-06-22T10:37:45;3.03;;;0.90;;
19798;SDS011;10059;59.850;10.454;2023-06-22T10:40:13;1.27;;;0.90;;
19798;SDS011;10059;59.850;10.454;2023-06-22T10:42:41;2.10;;;0.70;;
19798;SDS011;10059;59.850;10.454;2023-06-22T10:45:08;3.80;;;0.90;;
19798;SDS011;10059;59.850;10.454;2023-06-22T10:47:35;1.20;;;0.90;;
19798;SDS011;10059;59.850;10.454;2023-06-22T10:50:03;1.30;;;1.00;;
19798;SDS011;10059;59.850;10.454;2023-06-22T10:52:30;1.63;;;0.80;;
19798;SDS011;10059;59.850;10.454;2023-06-22T10:54:58;0.93;;;0.80;;
19798;SDS011;10059;59.850;10.454;2023-06-22T10:57:25;5.23;;;0.90;;
19798;SDS011;10059;59.850;10.454;2023-06-22T10:59:52;0.97;;;0.83;;
19798;SDS011;10059;59.850;10.454;2023-06-22T11:02:19;0.90;;;0.80;;
19798;SDS011;10059;59.850;10.454;2023-06-22T11:04:46;1.47;;;0.90;;
19798;SDS011;10059;59.850;10.454;2023-06-22T11:07:13;1.10;;;0.73;;
19798;SDS011;10059;59.850;10.454;2023-06-22T11:09:39;2.63;;;0.90;;
19798;SDS011;10059;59.850;10.454;2023-06-22T11:12:08;1.20;;;0.70;;
19798;SDS011;10059;59.850;10.454;2023-06-22T11:14:35;0.60;;;0.60;;
19798;SDS011;10059;59.850;10.454;2023-06-22T11:17:02;1.17;;;0.80;;
19798;SDS011;10059;59.850;10.454;2023-06-22T11:19:29;1.07;;;0.60;;
19798;SDS011;10059;59.850;10.454;2023-06-22T11:21:55;0.90;;;0.50;;
19798;SDS011;10059;59.850;10.454;2023-06-22T11:24:22;3.20;;;0.80;;
19798;SDS011;10059;59.850;10.454;2023-06-22T11:26:49;0.67;;;0.63;;
19798;SDS011;10059;59.850;10.454;2023-06-22T11:29:17;7.20;;;0.87;;
19798;SDS011;10059;59.850;10.454;2023-06-22T11:31:44;3.43;;;0.80;;
19798;SDS011;10059;59.850;10.454;2023-06-22T11:34:11;0.97;;;0.80;;
19798;SDS011;10059;59.850;10.454;2023-06-22T11:36:37;4.13;;;0.80;;
19798;SDS011;10059;59.850;10.454;2023-06-22T11:39:04;0.60;;;0.60;;
19798;SDS011;10059;59.850;10.454;2023-06-22T11:41:31;0.80;;;0.77;;
19798;SDS011;10059;59.850;10.454;2023-06-22T11:43:58;3.83;;;0.87;;
19798;SDS011;10059;59.850;10.454;2023-06-22T11:46:26;2.20;;;0.90;;
19798;SDS011;10059;59.850;10.454;2023-06-22T11:48:53;1.13;;;0.87;;
19798;SDS011;10059;59.850;10.454;2023-06-22T11:51:20;0.77;;;0.70;;
19798;SDS011;10059;59.850;10.454;2023-06-22T11:53:47;1.13;;;0.70;;
19798;SDS011;10059;59.850;10.454;2023-06-22T11:56:13;2.93;;;0.87;;
19798;SDS011;10059;59.850;10.454;2023-06-22T11:58:40;1.10;;;0.87;;
19798;SDS011;10059;59.850;10.454;2023-06-22T12:01:07;1.07;;;0.97;;
19798;SDS011;10059;59.850;10.454;2023-06-22T12:03:35;2.20;;;1.20;;
19798;SDS011;10059;59.850;10.454;2023-06-22T12:06:02;2.50;;;1.03;;
19798;SDS011;10059;59.850;10.454;2023-06-22T12:08:29;3.07;;;1.00;;
19798;SDS011;10059;59.850;10.454;2023-06-22T12:10:56;4.10;;;1.10;;
19798;SDS011;10059;59.850;10.454;2023-06-22T12:13:22;1.20;;;0.97;;
19798;SDS011;10059;59.850;10.454;2023-06-22T12:15:49;1.37;;;1.10;;
19798;SDS011;10059;59.850;10.454;2023-06-22T12:18:17;2.40;;;1.00;;
19798;SDS011;10059;59.850;10.454;2023-06-22T12:20:47;1.60;;;1.37;;
19798;SDS011;10059;59.850;10.454;2023-06-22T12:23:14;2.70;;;1.30;;
19798;SDS011;10059;59.850;10.454;2023-06-22T12:25:41;1.67;;;1.30;;
19798;SDS011;10059;59.850;10.454;2023-06-22T12:28:08;1.47;;;1.37;;
19798;SDS011;10059;59.850;10.454;2023-06-22T12:30:34;3.27;;;1.23;;
19798;SDS011;10059;59.850;10.454;2023-06-22T12:33:01;1.30;;;1.20;;
19798;SDS011;10059;59.850;10.454;2023-06-22T12:35:28;3.20;;;1.20;;
19798;SDS011;10059;59.850;10.454;2023-06-22T12:37:56;4.93;;;1.30;;
19798;SDS011;10059;59.850;10.454;2023-06-22T12:40:24;1.57;;;1.37;;
19798;SDS011;10059;59.850;10.454;2023-06-22T12:42:50;5.00;;;1.70;;
19798;SDS011;10059;59.850;10.454;2023-06-22T12:45:17;4.37;;;1.63;;
19798;SDS011;10059;59.850;10.454;2023-06-22T12:47:46;4.23;;;1.70;;
19798;SDS011;10059;59.850;10.454;2023-06-22T12:50:15;2.10;;;1.70;;
19798;SDS011;10059;59.850;10.454;2023-06-22T12:52:42;2.13;;;1.80;;
19798;SDS011;10059;59.850;10.454;2023-06-22T12:55:10;2.00;;;1.80;;
19798;SDS011;10059;59.850;10.454;2023-06-22T12:57:37;2.73;;;1.90;;
19798;SDS011;10059;59.850;10.454;2023-06-22T13:00:04;4.63;;;2.07;;
19798;SDS011;10059;59.850;10.454;2023-06-22T13:02:35;2.43;;;1.90;;
19798;SDS011;10059;59.850;10.454;2023-06-22T13:05:02;3.50;;;2.07;;
19798;SDS011;10059;59.850;10.454;2023-06-22T13:07:30;3.67;;;1.80;;
19798;SDS011;10059;59.850;10.454;2023-06-22T13:09:56;4.43;;;1.80;;
19798;SDS011;10059;59.850;10.454;2023-06-22T13:12:25;2.13;;;1.70;;
19798;SDS011;10059;59.850;10.454;2023-06-22T13:14:51;2.17;;;1.80;;
19798;SDS011;10059;59.850;10.454;2023-06-22T13:17:18;3.00;;;2.13;;
19798;SDS011;10059;59.850;10.454;2023-06-22T13:19:45;3.27;;;2.07;;
19798;SDS011;10059;59.850;10.454;2023-06-22T13:22:25;3.67;;;2.10;;
19798;SDS011;10059;59.850;10.454;2023-06-22T13:24:56;2.73;;;2.10;;
19798;SDS011;10059;59.850;10.454;2023-06-22T13:27:24;3.80;;;2.40;;
19798;SDS011;10059;59.850;10.454;2023-06-22T13:29:51;2.70;;;2.40;;
19798;SDS011;10059;59.850;10.454;2023-06-22T13:32:18;2.90;;;2.23;;
19798;SDS011;10059;59.850;10.454;2023-06-22T13:34:45;3.00;;;2.30;;
19798;SDS011;10059;59.850;10.454;2023-06-22T13:37:12;3.20;;;2.37;;
19798;SDS011;10059;59.850;10.454;2023-06-22T13:39:39;2.97;;;2.30;;
19798;SDS011;10059;59.850;10.454;2023-06-22T13:42:06;2.70;;;2.47;;
19798;SDS011;10059;59.850;10.454;2023-06-22T13:44:35;3.57;;;2.57;;
19798;SDS011;10059;59.850;10.454;2023-06-22T13:47:02;2.97;;;2.30;;
19798;SDS011;10059;59.850;10.454;2023-06-22T13:49:29;4.43;;;2.60;;
19798;SDS011;10059;59.850;10.454;2023-06-22T13:51:56;2.97;;;2.30;;
19798;SDS011;10059;59.850;10.454;2023-06-22T13:54:23;2.97;;;2.40;;
19798;SDS011;10059;59.850;10.454;2023-06-22T13:56:50;2.80;;;2.50;;
19798;SDS011;10059;59.850;10.454;2023-06-22T13:59:17;4.93;;;2.50;;
19798;SDS011;10059;59.850;10.454;2023-06-22T14:01:47;3.10;;;2.50;;
19798;SDS011;10059;59.850;10.454;2023-06-22T14:04:13;3.47;;;2.50;;
19798;SDS011;10059;59.850;10.454;2023-06-22T14:06:40;3.23;;;2.37;;
19798;SDS011;10059;59.850;10.454;2023-06-22T14:09:07;3.00;;;2.57;;
19798;SDS011;10059;59.850;10.454;2023-06-22T14:11:34;3.10;;;2.40;;
19798;SDS011;10059;59.850;10.454;2023-06-22T14:14:01;3.63;;;2.50;;
19798;SDS011;10059;59.850;10.454;2023-06-22T14:16:28;4.00;;;2.53;;
19798;SDS011;10059;59.850;10.454;2023-06-22T14:18:56;3.13;;;2.60;;
19798;SDS011;10059;59.850;10.454;2023-06-22T14:21:22;5.00;;;2.80;;
19798;SDS011;10059;59.850;10.454;2023-06-22T14:23:49;4.07;;;2.70;;
19798;SDS011;10059;59.850;10.454;2023-06-22T14:26:16;2.80;;;2.40;;
19798;SDS011;10059;59.850;10.454;2023-06-22T14:28:43;5.00;;;2.70;;
19798;SDS011;10059;59.850;10.454;2023-06-22T14:31:13;3.37;;;2.50;;
19798;SDS011;10059;59.850;10.454;2023-06-22T14:33:40;3.50;;;2.60;;